Terminal Aerodrome Forecast
Issued by NWS Billings, MT

Home | Current Version | Previous Version | Text Only | Print | Product List | Glossary On
Versions: 1 2 3 4 5 6 7 8 9 10 11 12 13 14 15
000
FTUS45 KBYZ 301913 AAA
TAFMLS
TAF AMD
KMLS 301913Z 3019/3118 32010KT P6SM VCSH SCT050 BKN110
     FM301930 33015G30KT P6SM VCTS SCT035CB BKN090
      TEMPO 3020/3022 2SM -TSRA OVC040CB
     FM310300 29012KT P6SM FEW070 SCT150
     FM310900 27018G27KT P6SM VCSH FEW020 BKN040=

USA.gov is the U.S. government's official web portal to all federal, state and local government web resources and services.